sensor_id;sensor_type;location;lat;lon;timestamp;P1;durP1;ratioP1;P2;durP2;ratioP2
35847;SDS011;22332;51.954;20.118;2022-12-08T00:01:04;13.10;;;3.70;;
35847;SDS011;22332;51.954;20.118;2022-12-08T00:04:07;12.00;;;4.00;;
35847;SDS011;22332;51.954;20.118;2022-12-08T00:07:11;14.00;;;3.70;;
35847;SDS011;22332;51.954;20.118;2022-12-08T00:10:32;5.00;;;2.30;;
35847;SDS011;22332;51.954;20.118;2022-12-08T00:13:35;7.60;;;2.60;;
35847;SDS011;22332;51.954;20.118;2022-12-08T00:16:38;5.80;;;2.50;;
35847;SDS011;22332;51.954;20.118;2022-12-08T00:19:40;4.80;;;2.10;;
35847;SDS011;22332;51.954;20.118;2022-12-08T00:22:44;5.70;;;2.10;;
35847;SDS011;22332;51.954;20.118;2022-12-08T00:25:47;4.90;;;2.30;;
35847;SDS011;22332;51.954;20.118;2022-12-08T00:28:50;4.10;;;2.40;;
35847;SDS011;22332;51.954;20.118;2022-12-08T00:31:52;5.00;;;2.30;;
35847;SDS011;22332;51.954;20.118;2022-12-08T00:34:55;5.10;;;2.30;;
35847;SDS011;22332;51.954;20.118;2022-12-08T00:37:58;3.50;;;2.60;;
35847;SDS011;22332;51.954;20.118;2022-12-08T00:41:01;3.30;;;2.00;;
35847;SDS011;22332;51.954;20.118;2022-12-08T00:44:04;5.50;;;2.30;;
35847;SDS011;22332;51.954;20.118;2022-12-08T00:47:07;4.00;;;2.50;;
35847;SDS011;22332;51.954;20.118;2022-12-08T00:50:10;6.20;;;3.00;;
35847;SDS011;22332;51.954;20.118;2022-12-08T00:53:13;5.50;;;3.00;;
35847;SDS011;22332;51.954;20.118;2022-12-08T00:56:16;6.00;;;3.30;;
35847;SDS011;22332;51.954;20.118;2022-12-08T00:59:18;4.80;;;3.10;;
35847;SDS011;22332;51.954;20.118;2022-12-08T01:02:21;7.20;;;3.20;;
35847;SDS011;22332;51.954;20.118;2022-12-08T01:05:24;5.90;;;2.50;;
35847;SDS011;22332;51.954;20.118;2022-12-08T01:08:27;5.80;;;2.80;;
35847;SDS011;22332;51.954;20.118;2022-12-08T01:11:30;6.30;;;2.60;;
35847;SDS011;22332;51.954;20.118;2022-12-08T01:14:34;4.50;;;2.60;;
35847;SDS011;22332;51.954;20.118;2022-12-08T01:17:37;3.60;;;2.30;;
35847;SDS011;22332;51.954;20.118;2022-12-08T01:20:40;7.20;;;2.60;;
35847;SDS011;22332;51.954;20.118;2022-12-08T01:23:43;4.30;;;2.70;;
35847;SDS011;22332;51.954;20.118;2022-12-08T01:26:46;4.90;;;2.10;;
35847;SDS011;22332;51.954;20.118;2022-12-08T01:29:49;4.20;;;2.40;;
35847;SDS011;22332;51.954;20.118;2022-12-08T01:32:52;3.60;;;2.20;;
35847;SDS011;22332;51.954;20.118;2022-12-08T01:35:55;5.60;;;2.50;;
35847;SDS011;22332;51.954;20.118;2022-12-08T01:39:03;4.40;;;2.60;;
35847;SDS011;22332;51.954;20.118;2022-12-08T01:42:10;3.60;;;2.30;;
35847;SDS011;22332;51.954;20.118;2022-12-08T01:45:26;6.80;;;3.00;;
35847;SDS011;22332;51.954;20.118;2022-12-08T01:48:30;6.00;;;2.80;;
35847;SDS011;22332;51.954;20.118;2022-12-08T01:51:33;7.00;;;2.60;;
35847;SDS011;22332;51.954;20.118;2022-12-08T01:54:42;6.50;;;2.60;;
35847;SDS011;22332;51.954;20.118;2022-12-08T01:57:48;5.00;;;2.50;;
35847;SDS011;22332;51.954;20.118;2022-12-08T02:00:53;5.50;;;3.00;;
35847;SDS011;22332;51.954;20.118;2022-12-08T02:03:57;5.70;;;3.00;;
35847;SDS011;22332;51.954;20.118;2022-12-08T02:07:01;4.60;;;2.80;;
35847;SDS011;22332;51.954;20.118;2022-12-08T02:10:06;6.00;;;2.90;;
35847;SDS011;22332;51.954;20.118;2022-12-08T02:13:12;6.30;;;3.20;;
35847;SDS011;22332;51.954;20.118;2022-12-08T02:16:20;5.80;;;3.10;;
35847;SDS011;22332;51.954;20.118;2022-12-08T02:19:43;6.00;;;3.70;;
35847;SDS011;22332;51.954;20.118;2022-12-08T02:23:04;6.10;;;3.50;;
35847;SDS011;22332;51.954;20.118;2022-12-08T02:30:02;13.20;;;4.90;;
35847;SDS011;22332;51.954;20.118;2022-12-08T02:36:55;6.50;;;3.70;;
35847;SDS011;22332;51.954;20.118;2022-12-08T02:40:06;6.90;;;3.10;;
35847;SDS011;22332;51.954;20.118;2022-12-08T02:46:27;7.50;;;4.40;;
35847;SDS011;22332;51.954;20.118;2022-12-08T02:49:36;8.20;;;4.80;;
35847;SDS011;22332;51.954;20.118;2022-12-08T02:52:39;8.20;;;4.70;;
35847;SDS011;22332;51.954;20.118;2022-12-08T02:55:45;10.80;;;5.00;;
35847;SDS011;22332;51.954;20.118;2022-12-08T02:59:03;9.10;;;5.20;;
35847;SDS011;22332;51.954;20.118;2022-12-08T03:02:17;11.00;;;6.30;;
35847;SDS011;22332;51.954;20.118;2022-12-08T03:05:36;10.50;;;6.10;;
35847;SDS011;22332;51.954;20.118;2022-12-08T03:08:54;12.90;;;6.70;;
35847;SDS011;22332;51.954;20.118;2022-12-08T03:12:05;13.40;;;6.90;;
35847;SDS011;22332;51.954;20.118;2022-12-08T03:15:15;12.60;;;7.40;;
35847;SDS011;22332;51.954;20.118;2022-12-08T03:18:21;10.60;;;5.90;;
35847;SDS011;22332;51.954;20.118;2022-12-08T03:21:29;12.00;;;6.60;;
35847;SDS011;22332;51.954;20.118;2022-12-08T03:24:35;11.10;;;6.40;;
35847;SDS011;22332;51.954;20.118;2022-12-08T03:27:39;11.30;;;6.60;;
35847;SDS011;22332;51.954;20.118;2022-12-08T03:30:43;11.60;;;6.20;;
35847;SDS011;22332;51.954;20.118;2022-12-08T03:33:50;10.40;;;6.40;;
35847;SDS011;22332;51.954;20.118;2022-12-08T03:36:55;13.30;;;7.10;;
35847;SDS011;22332;51.954;20.118;2022-12-08T03:40:00;13.10;;;6.70;;
35847;SDS011;22332;51.954;20.118;2022-12-08T03:43:03;12.90;;;6.50;;
35847;SDS011;22332;51.954;20.118;2022-12-08T03:46:06;11.50;;;7.10;;
35847;SDS011;22332;51.954;20.118;2022-12-08T03:49:09;12.90;;;6.60;;
35847;SDS011;22332;51.954;20.118;2022-12-08T03:52:12;15.30;;;7.20;;
35847;SDS011;22332;51.954;20.118;2022-12-08T03:55:15;10.90;;;6.60;;
35847;SDS011;22332;51.954;20.118;2022-12-08T03:58:18;9.00;;;5.60;;
35847;SDS011;22332;51.954;20.118;2022-12-08T04:01:21;10.90;;;6.40;;
35847;SDS011;22332;51.954;20.118;2022-12-08T04:04:24;11.00;;;6.20;;
35847;SDS011;22332;51.954;20.118;2022-12-08T04:07:26;8.40;;;5.60;;
35847;SDS011;22332;51.954;20.118;2022-12-08T04:10:30;9.30;;;5.50;;
35847;SDS011;22332;51.954;20.118;2022-12-08T04:13:33;11.30;;;6.10;;
35847;SDS011;22332;51.954;20.118;2022-12-08T04:16:36;18.90;;;11.80;;
35847;SDS011;22332;51.954;20.118;2022-12-08T04:19:39;16.10;;;8.80;;
35847;SDS011;22332;51.954;20.118;2022-12-08T04:22:42;12.70;;;7.40;;
35847;SDS011;22332;51.954;20.118;2022-12-08T04:25:44;11.00;;;6.60;;
35847;SDS011;22332;51.954;20.118;2022-12-08T04:28:47;12.90;;;7.50;;
35847;SDS011;22332;51.954;20.118;2022-12-08T04:31:50;13.80;;;7.80;;
35847;SDS011;22332;51.954;20.118;2022-12-08T04:34:53;15.10;;;7.90;;
35847;SDS011;22332;51.954;20.118;2022-12-08T04:37:56;22.30;;;13.20;;
35847;SDS011;22332;51.954;20.118;2022-12-08T04:40:58;11.50;;;6.80;;
35847;SDS011;22332;51.954;20.118;2022-12-08T04:44:01;13.00;;;7.00;;
35847;SDS011;22332;51.954;20.118;2022-12-08T04:47:04;12.30;;;6.60;;
35847;SDS011;22332;51.954;20.118;2022-12-08T04:50:07;11.50;;;6.70;;
35847;SDS011;22332;51.954;20.118;2022-12-08T04:53:11;10.50;;;6.60;;
35847;SDS011;22332;51.954;20.118;2022-12-08T04:56:16;35.00;;;19.50;;
35847;SDS011;22332;51.954;20.118;2022-12-08T04:59:19;20.00;;;11.20;;
35847;SDS011;22332;51.954;20.118;2022-12-08T05:02:22;17.00;;;9.50;;
35847;SDS011;22332;51.954;20.118;2022-12-08T05:05:25;12.00;;;7.30;;
35847;SDS011;22332;51.954;20.118;2022-12-08T05:08:28;12.10;;;6.60;;
35847;SDS011;22332;51.954;20.118;2022-12-08T05:11:31;14.60;;;7.10;;
35847;SDS011;22332;51.954;20.118;2022-12-08T05:14:34;12.00;;;6.70;;
35847;SDS011;22332;51.954;20.118;2022-12-08T05:17:37;15.10;;;7.20;;
35847;SDS011;22332;51.954;20.118;2022-12-08T05:20:39;16.50;;;8.50;;
35847;SDS011;22332;51.954;20.118;2022-12-08T05:23:42;18.10;;;8.80;;
35847;SDS011;22332;51.954;20.118;2022-12-08T05:26:45;23.10;;;13.00;;
35847;SDS011;22332;51.954;20.118;2022-12-08T05:29:48;40.10;;;22.40;;
35847;SDS011;22332;51.954;20.118;2022-12-08T05:32:51;30.50;;;17.30;;
35847;SDS011;22332;51.954;20.118;2022-12-08T05:35:53;17.20;;;9.00;;
35847;SDS011;22332;51.954;20.118;2022-12-08T05:38:56;16.40;;;8.40;;
35847;SDS011;22332;51.954;20.118;2022-12-08T05:41:59;15.80;;;8.30;;
35847;SDS011;22332;51.954;20.118;2022-12-08T05:45:02;22.00;;;14.30;;
35847;SDS011;22332;51.954;20.118;2022-12-08T05:48:06;17.70;;;8.50;;
35847;SDS011;22332;51.954;20.118;2022-12-08T05:51:13;13.60;;;7.40;;
35847;SDS011;22332;51.954;20.118;2022-12-08T05:54:18;15.00;;;7.10;;
35847;SDS011;22332;51.954;20.118;2022-12-08T05:57:21;12.40;;;6.40;;
35847;SDS011;22332;51.954;20.118;2022-12-08T06:00:24;11.30;;;6.60;;
35847;SDS011;22332;51.954;20.118;2022-12-08T06:03:27;27.00;;;14.30;;
35847;SDS011;22332;51.954;20.118;2022-12-08T06:06:29;19.00;;;10.30;;
35847;SDS011;22332;51.954;20.118;2022-12-08T06:09:34;14.00;;;7.70;;
35847;SDS011;22332;51.954;20.118;2022-12-08T06:12:37;17.50;;;9.20;;
35847;SDS011;22332;51.954;20.118;2022-12-08T06:15:41;12.90;;;7.40;;
35847;SDS011;22332;51.954;20.118;2022-12-08T06:18:44;13.50;;;7.50;;
35847;SDS011;22332;51.954;20.118;2022-12-08T06:21:47;14.10;;;7.50;;
35847;SDS011;22332;51.954;20.118;2022-12-08T06:24:50;15.30;;;8.50;;
35847;SDS011;22332;51.954;20.118;2022-12-08T06:27:53;14.90;;;8.10;;
35847;SDS011;22332;51.954;20.118;2022-12-08T06:30:56;14.40;;;7.30;;
35847;SDS011;22332;51.954;20.118;2022-12-08T06:33:59;53.50;;;30.20;;
35847;SDS011;22332;51.954;20.118;2022-12-08T06:37:02;47.80;;;28.00;;
35847;SDS011;22332;51.954;20.118;2022-12-08T06:40:06;46.80;;;23.80;;
35847;SDS011;22332;51.954;20.118;2022-12-08T06:43:10;58.00;;;28.60;;
35847;SDS011;22332;51.954;20.118;2022-12-08T06:46:14;46.40;;;23.50;;
35847;SDS011;22332;51.954;20.118;2022-12-08T06:49:18;31.90;;;16.70;;
35847;SDS011;22332;51.954;20.118;2022-12-08T06:52:21;20.00;;;11.70;;
35847;SDS011;22332;51.954;20.118;2022-12-08T06:55:24;16.80;;;9.00;;
35847;SDS011;22332;51.954;20.118;2022-12-08T06:58:27;15.20;;;8.30;;
35847;SDS011;22332;51.954;20.118;2022-12-08T07:01:29;14.50;;;8.00;;
35847;SDS011;22332;51.954;20.118;2022-12-08T07:04:32;13.40;;;7.70;;
35847;SDS011;22332;51.954;20.118;2022-12-08T07:07:35;12.70;;;7.50;;
35847;SDS011;22332;51.954;20.118;2022-12-08T07:10:38;12.70;;;6.90;;
35847;SDS011;22332;51.954;20.118;2022-12-08T07:13:41;12.50;;;7.30;;
35847;SDS011;22332;51.954;20.118;2022-12-08T07:16:44;12.90;;;7.10;;
35847;SDS011;22332;51.954;20.118;2022-12-08T07:19:47;13.50;;;7.20;;
35847;SDS011;22332;51.954;20.118;2022-12-08T07:22:50;27.70;;;14.50;;
35847;SDS011;22332;51.954;20.118;2022-12-08T07:25:53;17.50;;;9.90;;
35847;SDS011;22332;51.954;20.118;2022-12-08T07:28:56;16.50;;;8.30;;
35847;SDS011;22332;51.954;20.118;2022-12-08T07:32:00;17.90;;;9.00;;
35847;SDS011;22332;51.954;20.118;2022-12-08T07:35:03;19.80;;;9.00;;
35847;SDS011;22332;51.954;20.118;2022-12-08T07:38:09;22.00;;;11.60;;
35847;SDS011;22332;51.954;20.118;2022-12-08T07:41:12;19.90;;;10.80;;
35847;SDS011;22332;51.954;20.118;2022-12-08T07:44:16;20.60;;;10.40;;
35847;SDS011;22332;51.954;20.118;2022-12-08T07:47:19;20.60;;;10.50;;
35847;SDS011;22332;51.954;20.118;2022-12-08T07:50:21;16.20;;;8.70;;
35847;SDS011;22332;51.954;20.118;2022-12-08T07:53:24;11.90;;;6.80;;
35847;SDS011;22332;51.954;20.118;2022-12-08T07:56:27;28.90;;;13.50;;
35847;SDS011;22332;51.954;20.118;2022-12-08T07:59:30;66.50;;;31.50;;
35847;SDS011;22332;51.954;20.118;2022-12-08T08:02:33;69.30;;;33.30;;
35847;SDS011;22332;51.954;20.118;2022-12-08T08:05:36;67.20;;;26.10;;
35847;SDS011;22332;51.954;20.118;2022-12-08T08:08:39;64.10;;;22.60;;
35847;SDS011;22332;51.954;20.118;2022-12-08T08:11:42;67.30;;;22.60;;
35847;SDS011;22332;51.954;20.118;2022-12-08T08:14:45;49.10;;;19.90;;
35847;SDS011;22332;51.954;20.118;2022-12-08T08:17:48;63.80;;;25.80;;
35847;SDS011;22332;51.954;20.118;2022-12-08T08:20:52;75.20;;;28.40;;
35847;SDS011;22332;51.954;20.118;2022-12-08T08:23:55;70.90;;;28.30;;
35847;SDS011;22332;51.954;20.118;2022-12-08T08:26:57;64.40;;;25.50;;
35847;SDS011;22332;51.954;20.118;2022-12-08T08:30:00;69.50;;;27.40;;
35847;SDS011;22332;51.954;20.118;2022-12-08T08:33:03;63.00;;;27.90;;
35847;SDS011;22332;51.954;20.118;2022-12-08T08:36:07;66.30;;;30.10;;
35847;SDS011;22332;51.954;20.118;2022-12-08T08:39:11;92.20;;;34.80;;
35847;SDS011;22332;51.954;20.118;2022-12-08T08:42:14;72.90;;;31.40;;
35847;SDS011;22332;51.954;20.118;2022-12-08T08:45:17;73.50;;;30.70;;
35847;SDS011;22332;51.954;20.118;2022-12-08T08:48:20;49.20;;;22.80;;
35847;SDS011;22332;51.954;20.118;2022-12-08T08:51:23;45.20;;;22.00;;
35847;SDS011;22332;51.954;20.118;2022-12-08T08:54:26;44.40;;;22.10;;
35847;SDS011;22332;51.954;20.118;2022-12-08T08:57:30;57.20;;;25.10;;
35847;SDS011;22332;51.954;20.118;2022-12-08T09:00:33;139.00;;;45.60;;
35847;SDS011;22332;51.954;20.118;2022-12-08T09:03:35;131.60;;;46.10;;
35847;SDS011;22332;51.954;20.118;2022-12-08T09:06:38;93.80;;;35.20;;
35847;SDS011;22332;51.954;20.118;2022-12-08T09:09:43;97.20;;;37.20;;
35847;SDS011;22332;51.954;20.118;2022-12-08T09:12:45;125.10;;;42.60;;
35847;SDS011;22332;51.954;20.118;2022-12-08T09:15:48;112.30;;;38.40;;
35847;SDS011;22332;51.954;20.118;2022-12-08T09:18:51;39.00;;;18.40;;
35847;SDS011;22332;51.954;20.118;2022-12-08T09:21:54;31.30;;;16.00;;
35847;SDS011;22332;51.954;20.118;2022-12-08T09:24:57;40.20;;;19.30;;
35847;SDS011;22332;51.954;20.118;2022-12-08T09:27:59;38.80;;;19.50;;
35847;SDS011;22332;51.954;20.118;2022-12-08T09:31:02;32.90;;;17.60;;
35847;SDS011;22332;51.954;20.118;2022-12-08T09:34:06;29.80;;;18.30;;
35847;SDS011;22332;51.954;20.118;2022-12-08T09:37:09;28.10;;;17.30;;
35847;SDS011;22332;51.954;20.118;2022-12-08T09:40:14;29.30;;;17.90;;
35847;SDS011;22332;51.954;20.118;2022-12-08T09:43:23;30.30;;;17.90;;
35847;SDS011;22332;51.954;20.118;2022-12-08T09:46:44;29.70;;;18.80;;
35847;SDS011;22332;51.954;20.118;2022-12-08T09:49:54;28.20;;;17.50;;
35847;SDS011;22332;51.954;20.118;2022-12-08T09:53:03;36.30;;;20.40;;
35847;SDS011;22332;51.954;20.118;2022-12-08T09:56:11;29.70;;;16.60;;
35847;SDS011;22332;51.954;20.118;2022-12-08T09:59:20;34.40;;;18.80;;
35847;SDS011;22332;51.954;20.118;2022-12-08T10:02:27;25.70;;;15.00;;
35847;SDS011;22332;51.954;20.118;2022-12-08T10:05:31;36.10;;;19.60;;
35847;SDS011;22332;51.954;20.118;2022-12-08T10:08:40;34.60;;;19.90;;
35847;SDS011;22332;51.954;20.118;2022-12-08T10:11:50;39.70;;;22.90;;
35847;SDS011;22332;51.954;20.118;2022-12-08T10:15:00;44.90;;;26.20;;
35847;SDS011;22332;51.954;20.118;2022-12-08T10:18:11;45.00;;;26.10;;
35847;SDS011;22332;51.954;20.118;2022-12-08T10:21:18;32.00;;;19.40;;
35847;SDS011;22332;51.954;20.118;2022-12-08T10:24:32;30.20;;;17.60;;
35847;SDS011;22332;51.954;20.118;2022-12-08T10:27:40;38.70;;;21.30;;
35847;SDS011;22332;51.954;20.118;2022-12-08T10:30:43;44.00;;;23.60;;
35847;SDS011;22332;51.954;20.118;2022-12-08T10:33:47;29.40;;;17.60;;
35847;SDS011;22332;51.954;20.118;2022-12-08T10:36:53;30.80;;;18.90;;
35847;SDS011;22332;51.954;20.118;2022-12-08T10:39:59;38.80;;;22.20;;
35847;SDS011;22332;51.954;20.118;2022-12-08T10:43:04;35.20;;;19.70;;
35847;SDS011;22332;51.954;20.118;2022-12-08T10:46:15;53.40;;;24.30;;
35847;SDS011;22332;51.954;20.118;2022-12-08T10:49:23;88.60;;;33.40;;
35847;SDS011;22332;51.954;20.118;2022-12-08T10:52:27;79.30;;;34.20;;
35847;SDS011;22332;51.954;20.118;2022-12-08T10:55:38;109.00;;;48.10;;
35847;SDS011;22332;51.954;20.118;2022-12-08T10:58:43;75.70;;;36.20;;
35847;SDS011;22332;51.954;20.118;2022-12-08T11:01:47;55.60;;;30.60;;
35847;SDS011;22332;51.954;20.118;2022-12-08T11:04:56;55.30;;;30.00;;
35847;SDS011;22332;51.954;20.118;2022-12-08T11:08:00;101.00;;;41.90;;
35847;SDS011;22332;51.954;20.118;2022-12-08T11:11:05;84.60;;;34.80;;
35847;SDS011;22332;51.954;20.118;2022-12-08T11:14:08;46.60;;;25.50;;
35847;SDS011;22332;51.954;20.118;2022-12-08T11:17:23;38.60;;;23.60;;
35847;SDS011;22332;51.954;20.118;2022-12-08T11:20:28;53.50;;;31.70;;
35847;SDS011;22332;51.954;20.118;2022-12-08T11:23:41;56.40;;;31.60;;
35847;SDS011;22332;51.954;20.118;2022-12-08T11:26:48;50.10;;;30.40;;
35847;SDS011;22332;51.954;20.118;2022-12-08T11:29:54;45.20;;;27.10;;
35847;SDS011;22332;51.954;20.118;2022-12-08T11:32:59;38.90;;;23.70;;
35847;SDS011;22332;51.954;20.118;2022-12-08T11:36:08;40.90;;;24.40;;
35847;SDS011;22332;51.954;20.118;2022-12-08T11:39:15;46.30;;;28.70;;
35847;SDS011;22332;51.954;20.118;2022-12-08T11:42:19;44.70;;;26.70;;
35847;SDS011;22332;51.954;20.118;2022-12-08T11:45:26;43.20;;;24.10;;
35847;SDS011;22332;51.954;20.118;2022-12-08T11:48:35;39.90;;;22.40;;
35847;SDS011;22332;51.954;20.118;2022-12-08T11:51:44;34.40;;;19.00;;
35847;SDS011;22332;51.954;20.118;2022-12-08T11:54:56;34.30;;;20.30;;
35847;SDS011;22332;51.954;20.118;2022-12-08T11:58:13;33.10;;;20.70;;
35847;SDS011;22332;51.954;20.118;2022-12-08T12:01:20;34.40;;;21.00;;
35847;SDS011;22332;51.954;20.118;2022-12-08T12:04:25;35.20;;;22.80;;
35847;SDS011;22332;51.954;20.118;2022-12-08T12:07:36;35.70;;;21.50;;
35847;SDS011;22332;51.954;20.118;2022-12-08T12:10:59;36.10;;;21.60;;
35847;SDS011;22332;51.954;20.118;2022-12-08T12:14:14;32.40;;;20.80;;
35847;SDS011;22332;51.954;20.118;2022-12-08T12:17:31;33.20;;;21.00;;
35847;SDS011;22332;51.954;20.118;2022-12-08T12:20:45;33.90;;;20.50;;
35847;SDS011;22332;51.954;20.118;2022-12-08T12:23:52;35.00;;;21.20;;
35847;SDS011;22332;51.954;20.118;2022-12-08T12:26:59;34.70;;;21.70;;
35847;SDS011;22332;51.954;20.118;2022-12-08T12:30:06;35.70;;;19.90;;
35847;SDS011;22332;51.954;20.118;2022-12-08T12:33:19;33.60;;;18.20;;
35847;SDS011;22332;51.954;20.118;2022-12-08T12:36:23;37.20;;;20.90;;
35847;SDS011;22332;51.954;20.118;2022-12-08T12:39:27;40.20;;;24.50;;
35847;SDS011;22332;51.954;20.118;2022-12-08T12:42:34;42.80;;;25.60;;
35847;SDS011;22332;51.954;20.118;2022-12-08T12:45:39;37.20;;;23.00;;
35847;SDS011;22332;51.954;20.118;2022-12-08T12:48:44;33.90;;;21.00;;
35847;SDS011;22332;51.954;20.118;2022-12-08T12:51:47;36.90;;;23.10;;
35847;SDS011;22332;51.954;20.118;2022-12-08T12:58:34;39.80;;;22.40;;
35847;SDS011;22332;51.954;20.118;2022-12-08T13:01:51;34.20;;;19.70;;
35847;SDS011;22332;51.954;20.118;2022-12-08T13:04:57;34.80;;;18.60;;
35847;SDS011;22332;51.954;20.118;2022-12-08T13:08:04;32.70;;;18.00;;
35847;SDS011;22332;51.954;20.118;2022-12-08T13:11:17;28.80;;;15.60;;
35847;SDS011;22332;51.954;20.118;2022-12-08T13:14:25;30.10;;;15.90;;
35847;SDS011;22332;51.954;20.118;2022-12-08T13:17:31;27.00;;;15.70;;
35847;SDS011;22332;51.954;20.118;2022-12-08T13:20:40;28.60;;;17.00;;
35847;SDS011;22332;51.954;20.118;2022-12-08T13:23:47;26.80;;;16.30;;
35847;SDS011;22332;51.954;20.118;2022-12-08T13:27:26;27.60;;;17.10;;
35847;SDS011;22332;51.954;20.118;2022-12-08T13:30:42;27.30;;;15.70;;
35847;SDS011;22332;51.954;20.118;2022-12-08T13:33:46;25.60;;;16.70;;
35847;SDS011;22332;51.954;20.118;2022-12-08T13:36:51;26.40;;;15.50;;
35847;SDS011;22332;51.954;20.118;2022-12-08T13:40:02;30.70;;;18.50;;
35847;SDS011;22332;51.954;20.118;2022-12-08T13:43:15;27.00;;;15.40;;
35847;SDS011;22332;51.954;20.118;2022-12-08T13:46:32;20.90;;;12.80;;
35847;SDS011;22332;51.954;20.118;2022-12-08T13:49:44;31.00;;;18.20;;
35847;SDS011;22332;51.954;20.118;2022-12-08T13:52:55;32.70;;;18.90;;
35847;SDS011;22332;51.954;20.118;2022-12-08T13:56:00;26.80;;;15.80;;
35847;SDS011;22332;51.954;20.118;2022-12-08T13:59:08;25.20;;;15.50;;
35847;SDS011;22332;51.954;20.118;2022-12-08T14:02:32;25.00;;;15.20;;
35847;SDS011;22332;51.954;20.118;2022-12-08T14:05:40;23.90;;;14.50;;
35847;SDS011;22332;51.954;20.118;2022-12-08T14:08:44;25.50;;;16.40;;
35847;SDS011;22332;51.954;20.118;2022-12-08T14:11:53;39.80;;;24.60;;
35847;SDS011;22332;51.954;20.118;2022-12-08T14:14:59;47.20;;;30.30;;
35847;SDS011;22332;51.954;20.118;2022-12-08T14:18:04;33.00;;;19.20;;
35847;SDS011;22332;51.954;20.118;2022-12-08T14:21:22;25.00;;;14.90;;
35847;SDS011;22332;51.954;20.118;2022-12-08T14:24:30;27.40;;;15.80;;
35847;SDS011;22332;51.954;20.118;2022-12-08T14:27:33;24.30;;;14.40;;
35847;SDS011;22332;51.954;20.118;2022-12-08T14:30:37;26.00;;;16.20;;
35847;SDS011;22332;51.954;20.118;2022-12-08T14:33:41;33.60;;;20.70;;
35847;SDS011;22332;51.954;20.118;2022-12-08T14:36:44;44.50;;;25.30;;
35847;SDS011;22332;51.954;20.118;2022-12-08T14:39:46;44.10;;;26.10;;
35847;SDS011;22332;51.954;20.118;2022-12-08T14:42:50;56.60;;;35.20;;
35847;SDS011;22332;51.954;20.118;2022-12-08T14:45:56;52.90;;;32.40;;
35847;SDS011;22332;51.954;20.118;2022-12-08T14:49:01;62.20;;;34.50;;
35847;SDS011;22332;51.954;20.118;2022-12-08T14:52:08;57.60;;;30.40;;
35847;SDS011;22332;51.954;20.118;2022-12-08T14:55:12;49.10;;;23.00;;
35847;SDS011;22332;51.954;20.118;2022-12-08T14:58:17;61.00;;;25.90;;
35847;SDS011;22332;51.954;20.118;2022-12-08T15:01:26;50.60;;;23.30;;
35847;SDS011;22332;51.954;20.118;2022-12-08T15:04:29;58.50;;;27.60;;
35847;SDS011;22332;51.954;20.118;2022-12-08T15:07:34;49.10;;;24.30;;
35847;SDS011;22332;51.954;20.118;2022-12-08T15:14:29;45.00;;;24.00;;
35847;SDS011;22332;51.954;20.118;2022-12-08T15:17:34;50.00;;;25.40;;
35847;SDS011;22332;51.954;20.118;2022-12-08T15:20:42;69.10;;;34.90;;
35847;SDS011;22332;51.954;20.118;2022-12-08T15:23:48;186.90;;;85.30;;
35847;SDS011;22332;51.954;20.118;2022-12-08T15:26:52;74.10;;;36.00;;
35847;SDS011;22332;51.954;20.118;2022-12-08T15:29:55;92.20;;;44.60;;
35847;SDS011;22332;51.954;20.118;2022-12-08T15:32:58;56.40;;;28.90;;
35847;SDS011;22332;51.954;20.118;2022-12-08T15:36:01;61.50;;;34.70;;
35847;SDS011;22332;51.954;20.118;2022-12-08T15:39:05;48.60;;;27.70;;
35847;SDS011;22332;51.954;20.118;2022-12-08T15:42:17;60.00;;;33.70;;
35847;SDS011;22332;51.954;20.118;2022-12-08T15:45:22;46.30;;;26.60;;
35847;SDS011;22332;51.954;20.118;2022-12-08T15:48:31;42.40;;;24.00;;
35847;SDS011;22332;51.954;20.118;2022-12-08T15:51:34;40.50;;;22.50;;
35847;SDS011;22332;51.954;20.118;2022-12-08T15:54:37;38.80;;;21.40;;
35847;SDS011;22332;51.954;20.118;2022-12-08T15:57:39;35.50;;;19.80;;
35847;SDS011;22332;51.954;20.118;2022-12-08T16:00:45;39.10;;;20.00;;
35847;SDS011;22332;51.954;20.118;2022-12-08T16:03:48;46.00;;;24.70;;
35847;SDS011;22332;51.954;20.118;2022-12-08T16:06:52;53.50;;;26.80;;
35847;SDS011;22332;51.954;20.118;2022-12-08T16:09:55;52.70;;;27.60;;
35847;SDS011;22332;51.954;20.118;2022-12-08T16:12:58;39.20;;;22.50;;
35847;SDS011;22332;51.954;20.118;2022-12-08T16:16:21;41.10;;;22.70;;
35847;SDS011;22332;51.954;20.118;2022-12-08T16:19:27;41.30;;;22.90;;
35847;SDS011;22332;51.954;20.118;2022-12-08T16:22:30;45.00;;;25.00;;
35847;SDS011;22332;51.954;20.118;2022-12-08T16:25:33;48.00;;;25.70;;
35847;SDS011;22332;51.954;20.118;2022-12-08T16:28:37;48.30;;;26.70;;
35847;SDS011;22332;51.954;20.118;2022-12-08T16:31:42;48.70;;;25.50;;
35847;SDS011;22332;51.954;20.118;2022-12-08T16:34:44;50.60;;;25.10;;
35847;SDS011;22332;51.954;20.118;2022-12-08T16:37:48;44.10;;;23.60;;
35847;SDS011;22332;51.954;20.118;2022-12-08T16:40:50;39.80;;;20.00;;
35847;SDS011;22332;51.954;20.118;2022-12-08T16:44:12;44.70;;;23.00;;
35847;SDS011;22332;51.954;20.118;2022-12-08T16:47:14;43.30;;;23.00;;
35847;SDS011;22332;51.954;20.118;2022-12-08T16:50:18;39.60;;;21.80;;
35847;SDS011;22332;51.954;20.118;2022-12-08T16:53:23;42.70;;;22.70;;
35847;SDS011;22332;51.954;20.118;2022-12-08T16:56:25;40.00;;;21.70;;
35847;SDS011;22332;51.954;20.118;2022-12-08T16:59:28;37.50;;;20.50;;
35847;SDS011;22332;51.954;20.118;2022-12-08T17:02:31;34.70;;;20.20;;
35847;SDS011;22332;51.954;20.118;2022-12-08T17:05:34;36.30;;;19.40;;
35847;SDS011;22332;51.954;20.118;2022-12-08T17:08:40;49.10;;;25.40;;
35847;SDS011;22332;51.954;20.118;2022-12-08T17:11:43;34.20;;;18.30;;
35847;SDS011;22332;51.954;20.118;2022-12-08T17:14:46;30.80;;;16.40;;
35847;SDS011;22332;51.954;20.118;2022-12-08T17:17:49;46.90;;;23.90;;
35847;SDS011;22332;51.954;20.118;2022-12-08T17:20:53;45.80;;;22.70;;
35847;SDS011;22332;51.954;20.118;2022-12-08T17:23:55;33.20;;;19.00;;
35847;SDS011;22332;51.954;20.118;2022-12-08T17:26:58;33.10;;;18.90;;
35847;SDS011;22332;51.954;20.118;2022-12-08T17:30:06;32.20;;;18.00;;
35847;SDS011;22332;51.954;20.118;2022-12-08T17:33:11;32.40;;;18.90;;
35847;SDS011;22332;51.954;20.118;2022-12-08T17:36:15;35.40;;;20.10;;
35847;SDS011;22332;51.954;20.118;2022-12-08T17:39:18;34.90;;;19.10;;
35847;SDS011;22332;51.954;20.118;2022-12-08T17:42:21;33.70;;;18.70;;
35847;SDS011;22332;51.954;20.118;2022-12-08T17:45:26;44.60;;;22.50;;
35847;SDS011;22332;51.954;20.118;2022-12-08T17:48:29;35.70;;;20.90;;
35847;SDS011;22332;51.954;20.118;2022-12-08T17:51:31;24.90;;;13.10;;
35847;SDS011;22332;51.954;20.118;2022-12-08T17:54:35;30.60;;;18.30;;
35847;SDS011;22332;51.954;20.118;2022-12-08T17:57:38;28.00;;;16.30;;
35847;SDS011;22332;51.954;20.118;2022-12-08T18:00:42;30.30;;;16.70;;
35847;SDS011;22332;51.954;20.118;2022-12-08T18:03:44;28.20;;;16.40;;
35847;SDS011;22332;51.954;20.118;2022-12-08T18:06:47;28.20;;;16.60;;
35847;SDS011;22332;51.954;20.118;2022-12-08T18:09:50;27.70;;;16.40;;
35847;SDS011;22332;51.954;20.118;2022-12-08T18:12:53;29.90;;;16.40;;
35847;SDS011;22332;51.954;20.118;2022-12-08T18:15:55;30.40;;;17.10;;